sensor_id;sensor_type;location;lat;lon;timestamp;P1;durP1;ratioP1;P2;durP2;ratioP2
10166;SDS011;62970;53.130;8.244;2022-12-18T00:01:22;49.80;;;25.90;;
10166;SDS011;62970;53.130;8.244;2022-12-18T00:03:54;47.00;;;25.17;;
10166;SDS011;62970;53.130;8.244;2022-12-18T00:06:24;47.03;;;25.90;;
10166;SDS011;62970;53.130;8.244;2022-12-18T00:09:01;48.30;;;25.53;;
10166;SDS011;62970;53.130;8.244;2022-12-18T00:11:31;48.33;;;26.37;;
10166;SDS011;62970;53.130;8.244;2022-12-18T00:14:00;45.53;;;25.80;;
10166;SDS011;62970;53.130;8.244;2022-12-18T00:16:30;51.87;;;26.13;;
10166;SDS011;62970;53.130;8.244;2022-12-18T00:19:02;50.43;;;26.30;;
10166;SDS011;62970;53.130;8.244;2022-12-18T00:21:32;48.67;;;25.37;;
10166;SDS011;62970;53.130;8.244;2022-12-18T00:24:05;48.23;;;25.83;;
10166;SDS011;62970;53.130;8.244;2022-12-18T00:26:35;50.50;;;26.77;;
10166;SDS011;62970;53.130;8.244;2022-12-18T00:29:08;47.93;;;25.13;;
10166;SDS011;62970;53.130;8.244;2022-12-18T00:31:42;47.43;;;24.00;;
10166;SDS011;62970;53.130;8.244;2022-12-18T00:34:11;45.50;;;24.73;;
10166;SDS011;62970;53.130;8.244;2022-12-18T00:36:42;45.67;;;23.87;;
10166;SDS011;62970;53.130;8.244;2022-12-18T00:39:14;46.97;;;24.57;;
10166;SDS011;62970;53.130;8.244;2022-12-18T00:41:43;43.80;;;23.63;;
10166;SDS011;62970;53.130;8.244;2022-12-18T00:44:25;46.97;;;23.67;;
10166;SDS011;62970;53.130;8.244;2022-12-18T00:46:54;43.90;;;23.30;;
10166;SDS011;62970;53.130;8.244;2022-12-18T00:49:23;44.33;;;23.43;;
10166;SDS011;62970;53.130;8.244;2022-12-18T00:51:53;44.37;;;24.00;;
10166;SDS011;62970;53.130;8.244;2022-12-18T00:54:26;43.47;;;23.70;;
10166;SDS011;62970;53.130;8.244;2022-12-18T00:56:56;40.17;;;22.87;;
10166;SDS011;62970;53.130;8.244;2022-12-18T00:59:25;38.63;;;22.17;;
10166;SDS011;62970;53.130;8.244;2022-12-18T01:04:31;38.87;;;21.43;;
10166;SDS011;62970;53.130;8.244;2022-12-18T01:12:00;40.93;;;22.13;;
10166;SDS011;62970;53.130;8.244;2022-12-18T01:14:29;37.17;;;21.17;;
10166;SDS011;62970;53.130;8.244;2022-12-18T01:16:58;38.30;;;20.77;;
10166;SDS011;62970;53.130;8.244;2022-12-18T01:19:28;38.93;;;21.97;;
10166;SDS011;62970;53.130;8.244;2022-12-18T01:21:58;37.97;;;20.77;;
10166;SDS011;62970;53.130;8.244;2022-12-18T01:24:30;35.43;;;19.63;;
10166;SDS011;62970;53.130;8.244;2022-12-18T01:34:46;38.20;;;19.93;;
10166;SDS011;62970;53.130;8.244;2022-12-18T01:37:15;37.37;;;20.47;;
10166;SDS011;62970;53.130;8.244;2022-12-18T01:39:44;36.30;;;19.53;;
10166;SDS011;62970;53.130;8.244;2022-12-18T01:42:15;38.47;;;20.23;;
10166;SDS011;62970;53.130;8.244;2022-12-18T01:44:57;39.10;;;19.40;;
10166;SDS011;62970;53.130;8.244;2022-12-18T01:47:31;34.47;;;19.30;;
10166;SDS011;62970;53.130;8.244;2022-12-18T01:50:09;34.77;;;19.70;;
10166;SDS011;62970;53.130;8.244;2022-12-18T01:52:42;36.50;;;19.30;;
10166;SDS011;62970;53.130;8.244;2022-12-18T01:55:16;33.97;;;19.13;;
10166;SDS011;62970;53.130;8.244;2022-12-18T01:57:48;31.60;;;18.67;;
10166;SDS011;62970;53.130;8.244;2022-12-18T02:00:21;31.40;;;18.20;;
10166;SDS011;62970;53.130;8.244;2022-12-18T02:02:52;33.63;;;18.43;;
10166;SDS011;62970;53.130;8.244;2022-12-18T02:05:26;35.80;;;19.00;;
10166;SDS011;62970;53.130;8.244;2022-12-18T02:08:09;35.93;;;19.00;;
10166;SDS011;62970;53.130;8.244;2022-12-18T02:10:46;33.63;;;18.27;;
10166;SDS011;62970;53.130;8.244;2022-12-18T02:13:26;34.30;;;19.07;;
10166;SDS011;62970;53.130;8.244;2022-12-18T02:16:06;34.17;;;18.77;;
10166;SDS011;62970;53.130;8.244;2022-12-18T02:18:42;34.67;;;18.73;;
10166;SDS011;62970;53.130;8.244;2022-12-18T02:21:22;32.23;;;17.63;;
10166;SDS011;62970;53.130;8.244;2022-12-18T02:24:04;29.97;;;17.40;;
10166;SDS011;62970;53.130;8.244;2022-12-18T02:26:59;31.10;;;18.47;;
10166;SDS011;62970;53.130;8.244;2022-12-18T02:29:34;30.00;;;17.60;;
10166;SDS011;62970;53.130;8.244;2022-12-18T02:37:05;29.63;;;17.60;;
10166;SDS011;62970;53.130;8.244;2022-12-18T02:39:41;28.87;;;17.87;;
10166;SDS011;62970;53.130;8.244;2022-12-18T02:42:16;30.10;;;17.73;;
10166;SDS011;62970;53.130;8.244;2022-12-18T02:44:47;28.67;;;16.70;;
10166;SDS011;62970;53.130;8.244;2022-12-18T02:47:24;26.50;;;16.80;;
10166;SDS011;62970;53.130;8.244;2022-12-18T02:52:31;32.83;;;17.57;;
10166;SDS011;62970;53.130;8.244;2022-12-18T02:55:13;29.63;;;17.00;;
10166;SDS011;62970;53.130;8.244;2022-12-18T02:58:01;25.80;;;16.33;;
10166;SDS011;62970;53.130;8.244;2022-12-18T03:00:39;27.50;;;16.97;;
10166;SDS011;62970;53.130;8.244;2022-12-18T03:03:16;27.93;;;15.43;;
10166;SDS011;62970;53.130;8.244;2022-12-18T03:05:53;25.30;;;16.00;;
10166;SDS011;62970;53.130;8.244;2022-12-18T03:08:28;31.17;;;17.37;;
10166;SDS011;62970;53.130;8.244;2022-12-18T03:11:05;28.77;;;16.77;;
10166;SDS011;62970;53.130;8.244;2022-12-18T03:13:40;31.13;;;16.83;;
10166;SDS011;62970;53.130;8.244;2022-12-18T03:16:17;26.70;;;16.93;;
10166;SDS011;62970;53.130;8.244;2022-12-18T03:18:53;27.03;;;16.57;;
10166;SDS011;62970;53.130;8.244;2022-12-18T03:21:27;26.23;;;16.27;;
10166;SDS011;62970;53.130;8.244;2022-12-18T03:24:05;25.90;;;16.10;;
10166;SDS011;62970;53.130;8.244;2022-12-18T03:26:36;27.53;;;16.20;;
10166;SDS011;62970;53.130;8.244;2022-12-18T03:29:12;26.47;;;16.97;;
10166;SDS011;62970;53.130;8.244;2022-12-18T03:31:47;26.80;;;17.23;;
10166;SDS011;62970;53.130;8.244;2022-12-18T03:34:23;25.47;;;16.60;;
10166;SDS011;62970;53.130;8.244;2022-12-18T03:36:58;26.00;;;15.70;;
10166;SDS011;62970;53.130;8.244;2022-12-18T03:39:29;24.83;;;16.07;;
10166;SDS011;62970;53.130;8.244;2022-12-18T03:42:00;27.10;;;16.50;;
10166;SDS011;62970;53.130;8.244;2022-12-18T03:44:42;27.53;;;16.27;;
10166;SDS011;62970;53.130;8.244;2022-12-18T03:47:21;23.73;;;15.53;;
10166;SDS011;62970;53.130;8.244;2022-12-18T03:49:57;26.77;;;15.40;;
10166;SDS011;62970;53.130;8.244;2022-12-18T03:52:34;26.43;;;15.73;;
10166;SDS011;62970;53.130;8.244;2022-12-18T03:55:07;23.37;;;15.17;;
10166;SDS011;62970;53.130;8.244;2022-12-18T03:57:39;22.00;;;15.07;;
10166;SDS011;62970;53.130;8.244;2022-12-18T04:00:14;26.77;;;15.67;;
10166;SDS011;62970;53.130;8.244;2022-12-18T04:02:47;23.23;;;15.63;;
10166;SDS011;62970;53.130;8.244;2022-12-18T04:05:21;22.97;;;15.10;;
10166;SDS011;62970;53.130;8.244;2022-12-18T04:07:55;24.67;;;15.43;;
10166;SDS011;62970;53.130;8.244;2022-12-18T04:10:26;24.33;;;16.10;;
10166;SDS011;62970;53.130;8.244;2022-12-18T04:12:56;23.93;;;15.77;;
10166;SDS011;62970;53.130;8.244;2022-12-18T04:15:29;22.50;;;14.93;;
10166;SDS011;62970;53.130;8.244;2022-12-18T04:17:59;22.10;;;15.00;;
10166;SDS011;62970;53.130;8.244;2022-12-18T04:20:30;22.87;;;13.73;;
10166;SDS011;62970;53.130;8.244;2022-12-18T04:22:59;26.23;;;15.37;;
10166;SDS011;62970;53.130;8.244;2022-12-18T04:25:28;22.07;;;14.70;;
10166;SDS011;62970;53.130;8.244;2022-12-18T04:27:58;20.17;;;14.17;;
10166;SDS011;62970;53.130;8.244;2022-12-18T04:30:30;22.70;;;14.50;;
10166;SDS011;62970;53.130;8.244;2022-12-18T04:33:00;23.87;;;14.33;;
10166;SDS011;62970;53.130;8.244;2022-12-18T04:35:29;21.60;;;14.77;;
10166;SDS011;62970;53.130;8.244;2022-12-18T04:37:59;24.30;;;14.60;;
10166;SDS011;62970;53.130;8.244;2022-12-18T04:40:28;23.10;;;14.50;;
10166;SDS011;62970;53.130;8.244;2022-12-18T04:42:58;23.10;;;14.37;;
10166;SDS011;62970;53.130;8.244;2022-12-18T04:45:29;20.23;;;13.50;;
10166;SDS011;62970;53.130;8.244;2022-12-18T04:48:00;21.10;;;13.97;;
10166;SDS011;62970;53.130;8.244;2022-12-18T04:50:30;22.63;;;13.93;;
10166;SDS011;62970;53.130;8.244;2022-12-18T04:53:01;20.60;;;13.60;;
10166;SDS011;62970;53.130;8.244;2022-12-18T04:55:30;21.23;;;13.93;;
10166;SDS011;62970;53.130;8.244;2022-12-18T04:57:59;19.30;;;13.60;;
10166;SDS011;62970;53.130;8.244;2022-12-18T05:00:32;20.00;;;12.73;;
10166;SDS011;62970;53.130;8.244;2022-12-18T05:03:01;18.70;;;13.30;;
10166;SDS011;62970;53.130;8.244;2022-12-18T05:05:31;19.17;;;12.70;;
10166;SDS011;62970;53.130;8.244;2022-12-18T05:08:03;20.00;;;13.33;;
10166;SDS011;62970;53.130;8.244;2022-12-18T05:10:32;18.57;;;13.00;;
10166;SDS011;62970;53.130;8.244;2022-12-18T05:13:01;23.13;;;12.77;;
10166;SDS011;62970;53.130;8.244;2022-12-18T05:15:34;18.97;;;12.83;;
10166;SDS011;62970;53.130;8.244;2022-12-18T05:18:04;20.07;;;12.87;;
10166;SDS011;62970;53.130;8.244;2022-12-18T05:20:34;21.20;;;14.10;;
10166;SDS011;62970;53.130;8.244;2022-12-18T05:23:03;22.47;;;14.00;;
10166;SDS011;62970;53.130;8.244;2022-12-18T05:25:32;19.47;;;12.53;;
10166;SDS011;62970;53.130;8.244;2022-12-18T05:28:02;18.10;;;12.73;;
10166;SDS011;62970;53.130;8.244;2022-12-18T05:30:34;17.57;;;12.33;;
10166;SDS011;62970;53.130;8.244;2022-12-18T05:33:04;15.93;;;11.20;;
10166;SDS011;62970;53.130;8.244;2022-12-18T05:35:33;19.73;;;12.40;;
10166;SDS011;62970;53.130;8.244;2022-12-18T05:38:02;19.20;;;13.00;;
10166;SDS011;62970;53.130;8.244;2022-12-18T05:40:32;17.77;;;11.93;;
10166;SDS011;62970;53.130;8.244;2022-12-18T05:43:01;17.43;;;12.03;;
10166;SDS011;62970;53.130;8.244;2022-12-18T05:45:36;15.90;;;11.03;;
10166;SDS011;62970;53.130;8.244;2022-12-18T05:48:06;17.57;;;11.90;;
10166;SDS011;62970;53.130;8.244;2022-12-18T05:50:38;16.57;;;11.07;;
10166;SDS011;62970;53.130;8.244;2022-12-18T05:53:10;18.37;;;11.43;;
10166;SDS011;62970;53.130;8.244;2022-12-18T05:55:41;15.77;;;10.63;;
10166;SDS011;62970;53.130;8.244;2022-12-18T05:58:12;16.07;;;10.77;;
10166;SDS011;62970;53.130;8.244;2022-12-18T06:00:45;14.60;;;10.50;;
10166;SDS011;62970;53.130;8.244;2022-12-18T06:03:15;13.70;;;10.17;;
10166;SDS011;62970;53.130;8.244;2022-12-18T06:05:45;14.93;;;10.43;;
10166;SDS011;62970;53.130;8.244;2022-12-18T06:08:15;16.10;;;10.93;;
10166;SDS011;62970;53.130;8.244;2022-12-18T06:10:49;15.40;;;10.53;;
10166;SDS011;62970;53.130;8.244;2022-12-18T06:13:20;14.20;;;10.23;;
10166;SDS011;62970;53.130;8.244;2022-12-18T06:15:52;14.47;;;10.90;;
10166;SDS011;62970;53.130;8.244;2022-12-18T06:18:21;15.93;;;10.77;;
10166;SDS011;62970;53.130;8.244;2022-12-18T06:20:54;14.93;;;10.67;;
10166;SDS011;62970;53.130;8.244;2022-12-18T06:23:24;14.07;;;10.57;;
10166;SDS011;62970;53.130;8.244;2022-12-18T06:25:54;15.93;;;10.70;;
10166;SDS011;62970;53.130;8.244;2022-12-18T06:28:23;16.53;;;11.30;;
10166;SDS011;62970;53.130;8.244;2022-12-18T06:30:55;15.07;;;10.83;;
10166;SDS011;62970;53.130;8.244;2022-12-18T06:33:25;14.47;;;10.33;;
10166;SDS011;62970;53.130;8.244;2022-12-18T06:35:59;13.80;;;9.93;;
10166;SDS011;62970;53.130;8.244;2022-12-18T06:38:29;15.57;;;10.23;;
10166;SDS011;62970;53.130;8.244;2022-12-18T06:40:59;13.17;;;10.20;;
10166;SDS011;62970;53.130;8.244;2022-12-18T06:43:28;15.13;;;9.97;;
10166;SDS011;62970;53.130;8.244;2022-12-18T06:46:02;15.00;;;10.70;;
10166;SDS011;62970;53.130;8.244;2022-12-18T06:48:33;15.30;;;10.47;;
10166;SDS011;62970;53.130;8.244;2022-12-18T06:51:02;16.03;;;10.83;;
10166;SDS011;62970;53.130;8.244;2022-12-18T06:53:32;16.97;;;10.97;;
10166;SDS011;62970;53.130;8.244;2022-12-18T06:56:02;14.03;;;9.53;;
10166;SDS011;62970;53.130;8.244;2022-12-18T06:58:33;13.53;;;9.47;;
10166;SDS011;62970;53.130;8.244;2022-12-18T07:01:06;13.80;;;9.07;;
10166;SDS011;62970;53.130;8.244;2022-12-18T07:03:38;12.80;;;9.20;;
10166;SDS011;62970;53.130;8.244;2022-12-18T07:06:12;14.60;;;9.60;;
10166;SDS011;62970;53.130;8.244;2022-12-18T07:08:43;11.73;;;8.67;;
10166;SDS011;62970;53.130;8.244;2022-12-18T07:11:13;15.20;;;9.77;;
10166;SDS011;62970;53.130;8.244;2022-12-18T07:13:42;12.87;;;8.73;;
10166;SDS011;62970;53.130;8.244;2022-12-18T07:16:17;12.60;;;8.73;;
10166;SDS011;62970;53.130;8.244;2022-12-18T07:18:48;15.80;;;9.33;;
10166;SDS011;62970;53.130;8.244;2022-12-18T07:21:18;12.13;;;8.70;;
10166;SDS011;62970;53.130;8.244;2022-12-18T07:23:48;71.33;;;10.80;;
10166;SDS011;62970;53.130;8.244;2022-12-18T07:26:17;13.27;;;8.20;;
10166;SDS011;62970;53.130;8.244;2022-12-18T07:28:49;12.27;;;8.67;;
10166;SDS011;62970;53.130;8.244;2022-12-18T07:31:25;12.07;;;8.47;;
10166;SDS011;62970;53.130;8.244;2022-12-18T07:33:56;12.13;;;8.60;;
10166;SDS011;62970;53.130;8.244;2022-12-18T07:36:31;13.83;;;9.03;;
10166;SDS011;62970;53.130;8.244;2022-12-18T07:39:00;12.70;;;8.57;;
10166;SDS011;62970;53.130;8.244;2022-12-18T07:41:30;11.17;;;7.93;;
10166;SDS011;62970;53.130;8.244;2022-12-18T07:43:59;12.40;;;8.10;;
10166;SDS011;62970;53.130;8.244;2022-12-18T07:46:32;12.53;;;9.03;;
10166;SDS011;62970;53.130;8.244;2022-12-18T07:49:01;10.97;;;8.33;;
10166;SDS011;62970;53.130;8.244;2022-12-18T07:51:31;11.83;;;8.53;;
10166;SDS011;62970;53.130;8.244;2022-12-18T07:54:00;13.10;;;8.97;;
10166;SDS011;62970;53.130;8.244;2022-12-18T07:56:30;10.83;;;8.93;;
10166;SDS011;62970;53.130;8.244;2022-12-18T07:58:59;11.13;;;8.23;;
10166;SDS011;62970;53.130;8.244;2022-12-18T08:01:31;10.77;;;8.40;;
10166;SDS011;62970;53.130;8.244;2022-12-18T08:04:00;11.33;;;8.67;;
10166;SDS011;62970;53.130;8.244;2022-12-18T08:06:30;11.53;;;8.23;;
10166;SDS011;62970;53.130;8.244;2022-12-18T08:08:59;11.27;;;7.83;;
10166;SDS011;62970;53.130;8.244;2022-12-18T08:11:33;11.57;;;8.73;;
10166;SDS011;62970;53.130;8.244;2022-12-18T08:14:02;10.60;;;7.90;;
10166;SDS011;62970;53.130;8.244;2022-12-18T08:16:34;11.57;;;8.10;;
10166;SDS011;62970;53.130;8.244;2022-12-18T08:19:06;11.07;;;7.67;;
10166;SDS011;62970;53.130;8.244;2022-12-18T08:21:35;12.63;;;8.53;;
10166;SDS011;62970;53.130;8.244;2022-12-18T08:24:08;9.67;;;7.70;;
10166;SDS011;62970;53.130;8.244;2022-12-18T08:26:38;10.77;;;7.60;;
10166;SDS011;62970;53.130;8.244;2022-12-18T08:29:08;10.87;;;7.40;;
10166;SDS011;62970;53.130;8.244;2022-12-18T08:31:40;11.97;;;7.00;;
10166;SDS011;62970;53.130;8.244;2022-12-18T08:34:09;13.03;;;8.20;;
10166;SDS011;62970;53.130;8.244;2022-12-18T08:36:38;10.40;;;7.97;;
10166;SDS011;62970;53.130;8.244;2022-12-18T08:39:08;12.83;;;8.30;;
10166;SDS011;62970;53.130;8.244;2022-12-18T08:41:37;10.70;;;7.83;;
10166;SDS011;62970;53.130;8.244;2022-12-18T08:44:06;12.50;;;8.33;;
10166;SDS011;62970;53.130;8.244;2022-12-18T08:46:51;11.20;;;8.13;;
10166;SDS011;62970;53.130;8.244;2022-12-18T08:49:21;13.23;;;8.53;;
10166;SDS011;62970;53.130;8.244;2022-12-18T08:51:53;16.73;;;8.87;;
10166;SDS011;62970;53.130;8.244;2022-12-18T08:54:23;13.67;;;9.23;;
10166;SDS011;62970;53.130;8.244;2022-12-18T08:56:52;12.63;;;8.63;;
10166;SDS011;62970;53.130;8.244;2022-12-18T08:59:22;13.07;;;8.67;;
10166;SDS011;62970;53.130;8.244;2022-12-18T09:01:54;11.67;;;8.67;;
10166;SDS011;62970;53.130;8.244;2022-12-18T09:04:23;12.80;;;9.53;;
10166;SDS011;62970;53.130;8.244;2022-12-18T09:06:55;14.03;;;9.80;;
10166;SDS011;62970;53.130;8.244;2022-12-18T09:09:24;14.63;;;10.47;;
10166;SDS011;62970;53.130;8.244;2022-12-18T09:11:53;16.70;;;11.43;;
10166;SDS011;62970;53.130;8.244;2022-12-18T09:14:22;14.20;;;11.00;;
10166;SDS011;62970;53.130;8.244;2022-12-18T09:16:55;16.10;;;10.37;;
10166;SDS011;62970;53.130;8.244;2022-12-18T09:19:25;15.10;;;10.53;;
10166;SDS011;62970;53.130;8.244;2022-12-18T09:21:54;13.90;;;9.67;;
10166;SDS011;62970;53.130;8.244;2022-12-18T09:24:24;13.60;;;10.37;;
10166;SDS011;62970;53.130;8.244;2022-12-18T09:26:53;15.57;;;10.80;;
10166;SDS011;62970;53.130;8.244;2022-12-18T09:29:23;14.97;;;10.37;;
10166;SDS011;62970;53.130;8.244;2022-12-18T09:31:56;13.13;;;10.00;;
10166;SDS011;62970;53.130;8.244;2022-12-18T09:34:25;13.77;;;9.30;;
10166;SDS011;62970;53.130;8.244;2022-12-18T09:36:54;13.13;;;9.93;;
10166;SDS011;62970;53.130;8.244;2022-12-18T09:39:24;17.73;;;13.47;;
10166;SDS011;62970;53.130;8.244;2022-12-18T09:41:53;13.93;;;11.27;;
10166;SDS011;62970;53.130;8.244;2022-12-18T09:44:27;15.00;;;11.37;;
10166;SDS011;62970;53.130;8.244;2022-12-18T09:47:05;16.63;;;11.27;;
10166;SDS011;62970;53.130;8.244;2022-12-18T09:49:42;11.80;;;9.43;;
10166;SDS011;62970;53.130;8.244;2022-12-18T09:52:17;11.83;;;9.40;;
10166;SDS011;62970;53.130;8.244;2022-12-18T09:54:53;12.33;;;8.70;;
10166;SDS011;62970;53.130;8.244;2022-12-18T09:57:28;12.73;;;9.27;;
10166;SDS011;62970;53.130;8.244;2022-12-18T10:00:03;10.27;;;8.10;;
10166;SDS011;62970;53.130;8.244;2022-12-18T10:02:48;12.50;;;8.83;;
10166;SDS011;62970;53.130;8.244;2022-12-18T10:05:20;12.57;;;9.53;;
10166;SDS011;62970;53.130;8.244;2022-12-18T10:08:02;13.30;;;9.33;;
10166;SDS011;62970;53.130;8.244;2022-12-18T10:10:42;9.47;;;7.57;;
10166;SDS011;62970;53.130;8.244;2022-12-18T10:13:20;14.60;;;9.20;;
10166;SDS011;62970;53.130;8.244;2022-12-18T10:16:05;13.07;;;8.90;;
10166;SDS011;62970;53.130;8.244;2022-12-18T10:18:52;13.37;;;8.53;;
10166;SDS011;62970;53.130;8.244;2022-12-18T10:21:34;15.10;;;10.27;;
10166;SDS011;62970;53.130;8.244;2022-12-18T10:24:12;13.40;;;9.67;;
10166;SDS011;62970;53.130;8.244;2022-12-18T10:26:47;10.20;;;7.97;;
10166;SDS011;62970;53.130;8.244;2022-12-18T10:29:16;12.03;;;8.40;;
10166;SDS011;62970;53.130;8.244;2022-12-18T10:31:46;15.93;;;11.80;;
10166;SDS011;62970;53.130;8.244;2022-12-18T10:34:18;11.13;;;9.47;;
10166;SDS011;62970;53.130;8.244;2022-12-18T10:36:47;11.23;;;9.03;;
10166;SDS011;62970;53.130;8.244;2022-12-18T10:39:17;11.37;;;8.63;;
10166;SDS011;62970;53.130;8.244;2022-12-18T10:41:52;11.43;;;8.23;;
10166;SDS011;62970;53.130;8.244;2022-12-18T10:44:41;12.53;;;9.10;;
10166;SDS011;62970;53.130;8.244;2022-12-18T10:47:11;10.97;;;8.90;;
10166;SDS011;62970;53.130;8.244;2022-12-18T10:49:50;10.13;;;7.77;;
10166;SDS011;62970;53.130;8.244;2022-12-18T10:52:23;8.93;;;7.73;;
10166;SDS011;62970;53.130;8.244;2022-12-18T10:54:55;10.83;;;7.87;;
10166;SDS011;62970;53.130;8.244;2022-12-18T10:57:29;10.60;;;8.17;;
10166;SDS011;62970;53.130;8.244;2022-12-18T11:02:56;9.93;;;8.10;;
10166;SDS011;62970;53.130;8.244;2022-12-18T11:05:29;11.50;;;7.93;;
10166;SDS011;62970;53.130;8.244;2022-12-18T11:08:02;11.37;;;8.40;;
10166;SDS011;62970;53.130;8.244;2022-12-18T11:10:33;10.17;;;7.70;;
10166;SDS011;62970;53.130;8.244;2022-12-18T11:13:09;10.33;;;7.87;;
10166;SDS011;62970;53.130;8.244;2022-12-18T11:15:45;8.37;;;7.13;;
10166;SDS011;62970;53.130;8.244;2022-12-18T11:18:18;10.50;;;7.53;;
10166;SDS011;62970;53.130;8.244;2022-12-18T11:20:56;9.23;;;7.43;;
10166;SDS011;62970;53.130;8.244;2022-12-18T11:23:28;10.30;;;7.23;;
10166;SDS011;62970;53.130;8.244;2022-12-18T11:25:58;9.10;;;7.07;;
10166;SDS011;62970;53.130;8.244;2022-12-18T11:28:35;10.87;;;7.83;;
10166;SDS011;62970;53.130;8.244;2022-12-18T11:31:21;9.17;;;7.53;;
10166;SDS011;62970;53.130;8.244;2022-12-18T11:33:54;9.40;;;7.57;;
10166;SDS011;62970;53.130;8.244;2022-12-18T11:36:32;9.47;;;7.83;;
10166;SDS011;62970;53.130;8.244;2022-12-18T11:39:09;11.33;;;8.90;;
10166;SDS011;62970;53.130;8.244;2022-12-18T11:41:49;11.80;;;8.53;;
10166;SDS011;62970;53.130;8.244;2022-12-18T11:44:42;14.00;;;9.33;;
10166;SDS011;62970;53.130;8.244;2022-12-18T11:47:21;12.03;;;8.77;;
10166;SDS011;62970;53.130;8.244;2022-12-18T11:49:59;11.33;;;8.33;;
10166;SDS011;62970;53.130;8.244;2022-12-18T11:52:35;14.20;;;9.37;;
10166;SDS011;62970;53.130;8.244;2022-12-18T11:55:10;11.43;;;9.03;;
10166;SDS011;62970;53.130;8.244;2022-12-18T11:57:45;10.00;;;8.50;;
10166;SDS011;62970;53.130;8.244;2022-12-18T12:00:24;9.80;;;8.23;;
10166;SDS011;62970;53.130;8.244;2022-12-18T12:03:10;10.47;;;7.63;;
10166;SDS011;62970;53.130;8.244;2022-12-18T12:06:10;9.77;;;7.57;;
10166;SDS011;62970;53.130;8.244;2022-12-18T12:08:53;10.83;;;7.80;;
10166;SDS011;62970;53.130;8.244;2022-12-18T12:11:36;9.47;;;7.83;;
10166;SDS011;62970;53.130;8.244;2022-12-18T12:14:20;11.97;;;7.77;;
10166;SDS011;62970;53.130;8.244;2022-12-18T12:17:10;9.90;;;7.73;;
10166;SDS011;62970;53.130;8.244;2022-12-18T12:19:51;11.57;;;8.80;;
10166;SDS011;62970;53.130;8.244;2022-12-18T12:22:33;9.37;;;8.13;;
10166;SDS011;62970;53.130;8.244;2022-12-18T12:25:18;8.93;;;7.60;;
10166;SDS011;62970;53.130;8.244;2022-12-18T12:28:02;8.67;;;7.03;;
10166;SDS011;62970;53.130;8.244;2022-12-18T12:30:47;10.27;;;6.97;;
10166;SDS011;62970;53.130;8.244;2022-12-18T12:33:30;9.90;;;7.13;;
10166;SDS011;62970;53.130;8.244;2022-12-18T12:36:09;8.53;;;6.80;;
10166;SDS011;62970;53.130;8.244;2022-12-18T12:38:50;8.90;;;7.40;;
10166;SDS011;62970;53.130;8.244;2022-12-18T12:41:28;8.50;;;7.47;;
10166;SDS011;62970;53.130;8.244;2022-12-18T12:44:14;10.10;;;7.73;;
10166;SDS011;62970;53.130;8.244;2022-12-18T12:46:50;9.47;;;7.77;;
10166;SDS011;62970;53.130;8.244;2022-12-18T12:49:25;10.60;;;8.17;;
10166;SDS011;62970;53.130;8.244;2022-12-18T12:52:00;9.03;;;7.50;;
10166;SDS011;62970;53.130;8.244;2022-12-18T12:54:35;10.27;;;7.57;;
10166;SDS011;62970;53.130;8.244;2022-12-18T12:57:09;7.73;;;6.93;;
10166;SDS011;62970;53.130;8.244;2022-12-18T12:59:51;7.70;;;6.77;;
10166;SDS011;62970;53.130;8.244;2022-12-18T13:02:28;10.03;;;7.33;;
10166;SDS011;62970;53.130;8.244;2022-12-18T13:05:06;9.33;;;7.47;;
10166;SDS011;62970;53.130;8.244;2022-12-18T13:07:47;10.63;;;8.00;;
10166;SDS011;62970;53.130;8.244;2022-12-18T13:10:24;8.23;;;6.83;;
10166;SDS011;62970;53.130;8.244;2022-12-18T13:13:03;10.03;;;7.80;;
10166;SDS011;62970;53.130;8.244;2022-12-18T13:15:33;11.23;;;8.77;;
10166;SDS011;62970;53.130;8.244;2022-12-18T13:18:13;9.80;;;7.87;;
10166;SDS011;62970;53.130;8.244;2022-12-18T13:20:48;9.30;;;7.43;;
10166;SDS011;62970;53.130;8.244;2022-12-18T13:23:30;9.87;;;7.73;;
10166;SDS011;62970;53.130;8.244;2022-12-18T13:29:04;8.57;;;7.07;;
10166;SDS011;62970;53.130;8.244;2022-12-18T13:34:47;9.17;;;7.00;;
10166;SDS011;62970;53.130;8.244;2022-12-18T13:43:27;8.17;;;6.23;;
10166;SDS011;62970;53.130;8.244;2022-12-18T13:46:19;7.23;;;5.73;;
10166;SDS011;62970;53.130;8.244;2022-12-18T13:48:56;8.40;;;6.60;;
10166;SDS011;62970;53.130;8.244;2022-12-18T13:51:33;6.20;;;5.60;;
10166;SDS011;62970;53.130;8.244;2022-12-18T13:54:06;7.87;;;6.83;;
10166;SDS011;62970;53.130;8.244;2022-12-18T13:56:50;8.53;;;6.63;;
10166;SDS011;62970;53.130;8.244;2022-12-18T13:59:19;8.03;;;6.30;;
10166;SDS011;62970;53.130;8.244;2022-12-18T14:01:56;8.37;;;6.73;;
10166;SDS011;62970;53.130;8.244;2022-12-18T14:04:28;8.40;;;6.70;;
10166;SDS011;62970;53.130;8.244;2022-12-18T14:07:01;8.60;;;6.47;;
10166;SDS011;62970;53.130;8.244;2022-12-18T14:09:40;7.50;;;6.03;;
10166;SDS011;62970;53.130;8.244;2022-12-18T14:12:14;8.80;;;6.63;;
10166;SDS011;62970;53.130;8.244;2022-12-18T14:14:58;9.57;;;6.63;;
10166;SDS011;62970;53.130;8.244;2022-12-18T14:17:30;9.00;;;7.00;;
10166;SDS011;62970;53.130;8.244;2022-12-18T14:20:00;9.30;;;6.80;;
10166;SDS011;62970;53.130;8.244;2022-12-18T14:22:30;9.50;;;7.03;;
10166;SDS011;62970;53.130;8.244;2022-12-18T14:25:14;8.33;;;7.03;;
10166;SDS011;62970;53.130;8.244;2022-12-18T14:27:49;7.70;;;6.50;;
10166;SDS011;62970;53.130;8.244;2022-12-18T14:30:24;8.73;;;7.40;;
10166;SDS011;62970;53.130;8.244;2022-12-18T14:33:04;8.73;;;6.90;;
10166;SDS011;62970;53.130;8.244;2022-12-18T14:35:38;8.23;;;6.90;;
10166;SDS011;62970;53.130;8.244;2022-12-18T14:38:18;9.97;;;7.30;;
10166;SDS011;62970;53.130;8.244;2022-12-18T14:40:52;8.03;;;6.83;;
10166;SDS011;62970;53.130;8.244;2022-12-18T14:43:27;9.50;;;7.20;;
10166;SDS011;62970;53.130;8.244;2022-12-18T14:45:59;9.63;;;7.10;;
10166;SDS011;62970;53.130;8.244;2022-12-18T14:48:37;7.90;;;7.10;;
10166;SDS011;62970;53.130;8.244;2022-12-18T14:51:15;7.67;;;6.87;;
10166;SDS011;62970;53.130;8.244;2022-12-18T14:53:47;9.33;;;7.10;;
10166;SDS011;62970;53.130;8.244;2022-12-18T14:56:22;7.83;;;6.70;;
10166;SDS011;62970;53.130;8.244;2022-12-18T14:58:54;9.93;;;6.67;;
10166;SDS011;62970;53.130;8.244;2022-12-18T15:01:29;10.77;;;7.23;;
10166;SDS011;62970;53.130;8.244;2022-12-18T15:04:05;8.20;;;7.03;;
10166;SDS011;62970;53.130;8.244;2022-12-18T15:07:03;8.33;;;7.20;;
10166;SDS011;62970;53.130;8.244;2022-12-18T15:09:39;9.80;;;7.00;;
10166;SDS011;62970;53.130;8.244;2022-12-18T15:12:19;8.37;;;6.80;;
10166;SDS011;62970;53.130;8.244;2022-12-18T15:14:56;7.30;;;6.07;;
10166;SDS011;62970;53.130;8.244;2022-12-18T15:17:25;8.33;;;6.47;;
10166;SDS011;62970;53.130;8.244;2022-12-18T15:20:01;7.53;;;6.33;;
10166;SDS011;62970;53.130;8.244;2022-12-18T15:22:38;12.07;;;6.97;;
10166;SDS011;62970;53.130;8.244;2022-12-18T15:25:20;9.63;;;7.77;;
10166;SDS011;62970;53.130;8.244;2022-12-18T15:27:59;9.03;;;7.27;;
10166;SDS011;62970;53.130;8.244;2022-12-18T15:30:29;11.60;;;7.90;;
10166;SDS011;62970;53.130;8.244;2022-12-18T15:35:58;8.13;;;6.70;;
10166;SDS011;62970;53.130;8.244;2022-12-18T15:38:33;9.47;;;6.80;;
10166;SDS011;62970;53.130;8.244;2022-12-18T15:41:03;8.67;;;6.90;;
10166;SDS011;62970;53.130;8.244;2022-12-18T15:43:41;9.00;;;7.50;;
10166;SDS011;62970;53.130;8.244;2022-12-18T15:46:09;10.13;;;7.60;;
10166;SDS011;62970;53.130;8.244;2022-12-18T15:48:42;10.53;;;7.37;;
10166;SDS011;62970;53.130;8.244;2022-12-18T15:51:17;9.80;;;6.93;;